sensor_id;sensor_type;location;lat;lon;timestamp;pressure;altitude;pressure_sealevel;temperature;humidity
36524;BME280;66329;46.796;9.824;2023-01-27T00:01:26;83916.60;;;25.13;3.50
36524;BME280;66329;46.796;9.824;2023-01-27T00:03:53;83918.67;;;25.53;3.55
36524;BME280;66329;46.796;9.824;2023-01-27T00:06:20;83913.48;;;25.55;3.52
36524;BME280;66329;46.796;9.824;2023-01-27T00:08:47;83910.29;;;25.08;3.54
36524;BME280;66329;46.796;9.824;2023-01-27T00:11:14;83910.08;;;25.55;3.55
36524;BME280;66329;46.796;9.824;2023-01-27T00:13:41;83903.77;;;25.14;3.50
36524;BME280;66329;46.796;9.824;2023-01-27T00:16:08;83902.99;;;25.13;3.53
36524;BME280;66329;46.796;9.824;2023-01-27T00:18:35;83906.45;;;24.66;3.50
36524;BME280;66329;46.796;9.824;2023-01-27T00:21:03;83904.64;;;24.63;3.53
36524;BME280;66329;46.796;9.824;2023-01-27T00:23:30;83903.88;;;25.50;3.54
36524;BME280;66329;46.796;9.824;2023-01-27T00:25:58;83901.54;;;25.49;3.51
36524;BME280;66329;46.796;9.824;2023-01-27T00:28:26;83898.98;;;25.43;3.52
36524;BME280;66329;46.796;9.824;2023-01-27T00:30:53;83896.89;;;25.39;3.51
36524;BME280;66329;46.796;9.824;2023-01-27T00:33:20;83899.75;;;25.38;3.54
36524;BME280;66329;46.796;9.824;2023-01-27T00:35:47;83898.37;;;25.47;3.53
36524;BME280;66329;46.796;9.824;2023-01-27T00:38:14;83897.99;;;25.47;3.50
36524;BME280;66329;46.796;9.824;2023-01-27T00:40:41;83895.13;;;25.03;3.51
36524;BME280;66329;46.796;9.824;2023-01-27T00:43:08;83893.92;;;24.61;3.38
36524;BME280;66329;46.796;9.824;2023-01-27T00:45:35;83889.97;;;25.44;3.52
36524;BME280;66329;46.796;9.824;2023-01-27T00:48:03;83885.95;;;24.60;3.52
36524;BME280;66329;46.796;9.824;2023-01-27T00:50:31;83887.17;;;24.58;3.49
36524;BME280;66329;46.796;9.824;2023-01-27T00:52:58;83891.17;;;25.03;3.49
36524;BME280;66329;46.796;9.824;2023-01-27T00:55:25;83890.71;;;25.45;3.50
36524;BME280;66329;46.796;9.824;2023-01-27T00:57:52;83883.00;;;25.39;3.47
36524;BME280;66329;46.796;9.824;2023-01-27T01:00:19;83887.45;;;25.02;3.51
36524;BME280;66329;46.796;9.824;2023-01-27T01:02:47;83891.86;;;25.40;3.49
36524;BME280;66329;46.796;9.824;2023-01-27T01:05:14;83894.56;;;25.44;3.47
36524;BME280;66329;46.796;9.824;2023-01-27T01:07:43;83891.65;;;24.52;3.46
36524;BME280;66329;46.796;9.824;2023-01-27T01:10:11;83897.29;;;25.49;3.47
36524;BME280;66329;46.796;9.824;2023-01-27T01:12:39;83898.89;;;25.06;3.46
36524;BME280;66329;46.796;9.824;2023-01-27T01:15:07;83893.65;;;24.52;3.47
36524;BME280;66329;46.796;9.824;2023-01-27T01:17:34;83888.79;;;25.01;3.47
36524;BME280;66329;46.796;9.824;2023-01-27T01:20:02;83888.72;;;25.02;3.44
36524;BME280;66329;46.796;9.824;2023-01-27T01:22:30;83889.47;;;25.41;3.46
36524;BME280;66329;46.796;9.824;2023-01-27T01:24:58;83886.70;;;25.37;3.51
36524;BME280;66329;46.796;9.824;2023-01-27T01:27:26;83887.08;;;24.47;3.46
36524;BME280;66329;46.796;9.824;2023-01-27T01:29:54;83884.62;;;25.85;3.39
36524;BME280;66329;46.796;9.824;2023-01-27T01:32:22;83883.57;;;25.36;3.41
36524;BME280;66329;46.796;9.824;2023-01-27T01:34:50;83881.39;;;24.94;3.42
36524;BME280;66329;46.796;9.824;2023-01-27T01:37:23;83876.86;;;24.52;3.44
36524;BME280;66329;46.796;9.824;2023-01-27T01:39:51;83880.72;;;24.94;3.41
36524;BME280;66329;46.796;9.824;2023-01-27T01:42:19;83877.88;;;24.86;3.43
36524;BME280;66329;46.796;9.824;2023-01-27T01:44:49;83876.92;;;24.94;3.41
36524;BME280;66329;46.796;9.824;2023-01-27T01:47:18;83876.23;;;24.95;3.44
36524;BME280;66329;46.796;9.824;2023-01-27T01:49:47;83869.15;;;25.33;3.41
36524;BME280;66329;46.796;9.824;2023-01-27T01:52:18;83873.39;;;24.92;3.37
36524;BME280;66329;46.796;9.824;2023-01-27T01:54:50;83878.39;;;25.30;3.39
36524;BME280;66329;46.796;9.824;2023-01-27T01:57:22;83881.39;;;24.87;3.37
36524;BME280;66329;46.796;9.824;2023-01-27T01:59:55;83885.22;;;24.96;3.38
36524;BME280;66329;46.796;9.824;2023-01-27T02:02:31;83883.04;;;24.90;3.36
36524;BME280;66329;46.796;9.824;2023-01-27T02:05:02;83875.99;;;24.96;3.37
36524;BME280;66329;46.796;9.824;2023-01-27T02:07:38;83875.68;;;25.30;3.36
36524;BME280;66329;46.796;9.824;2023-01-27T02:10:10;83879.58;;;25.30;3.35
36524;BME280;66329;46.796;9.824;2023-01-27T02:12:38;83876.97;;;24.90;3.34
36524;BME280;66329;46.796;9.824;2023-01-27T02:15:10;83875.49;;;25.35;3.31
36524;BME280;66329;46.796;9.824;2023-01-27T02:17:39;83877.08;;;25.35;3.33
36524;BME280;66329;46.796;9.824;2023-01-27T02:20:11;83875.56;;;25.33;3.30
36524;BME280;66329;46.796;9.824;2023-01-27T02:22:48;83876.77;;;25.31;3.32
36524;BME280;66329;46.796;9.824;2023-01-27T02:25:22;83875.24;;;25.28;3.29
36524;BME280;66329;46.796;9.824;2023-01-27T02:27:52;83875.69;;;24.85;3.30
36524;BME280;66329;46.796;9.824;2023-01-27T02:30:22;83873.33;;;25.26;3.31
36524;BME280;66329;46.796;9.824;2023-01-27T02:32:50;83870.68;;;25.28;3.28
36524;BME280;66329;46.796;9.824;2023-01-27T02:35:22;83869.44;;;25.23;3.29
36524;BME280;66329;46.796;9.824;2023-01-27T02:37:51;83869.28;;;25.21;3.29
36524;BME280;66329;46.796;9.824;2023-01-27T02:40:20;83863.51;;;24.37;3.34
36524;BME280;66329;46.796;9.824;2023-01-27T02:42:48;83862.13;;;24.89;3.32
36524;BME280;66329;46.796;9.824;2023-01-27T02:45:18;83869.21;;;24.91;3.27
36524;BME280;66329;46.796;9.824;2023-01-27T02:47:47;83867.24;;;25.33;3.26
36524;BME280;66329;46.796;9.824;2023-01-27T02:50:15;83871.55;;;25.32;3.27
36524;BME280;66329;46.796;9.824;2023-01-27T02:52:43;83875.55;;;24.84;3.26
36524;BME280;66329;46.796;9.824;2023-01-27T02:55:10;83874.75;;;24.84;3.27
36524;BME280;66329;46.796;9.824;2023-01-27T02:57:37;83871.91;;;25.28;3.26
36524;BME280;66329;46.796;9.824;2023-01-27T03:00:06;83874.64;;;24.91;3.23
36524;BME280;66329;46.796;9.824;2023-01-27T03:02:33;83868.74;;;25.27;3.23
36524;BME280;66329;46.796;9.824;2023-01-27T03:05:00;83874.05;;;24.88;3.24
36524;BME280;66329;46.796;9.824;2023-01-27T03:07:28;83872.67;;;24.41;3.21
36524;BME280;66329;46.796;9.824;2023-01-27T03:10:00;83870.52;;;24.89;3.20
36524;BME280;66329;46.796;9.824;2023-01-27T03:12:28;83868.43;;;25.31;3.21
36524;BME280;66329;46.796;9.824;2023-01-27T03:14:56;83868.55;;;24.88;3.16
36524;BME280;66329;46.796;9.824;2023-01-27T03:17:26;83868.31;;;24.90;3.19
36524;BME280;66329;46.796;9.824;2023-01-27T03:19:53;83867.49;;;24.86;3.18
36524;BME280;66329;46.796;9.824;2023-01-27T03:22:20;83869.33;;;24.82;3.16
36524;BME280;66329;46.796;9.824;2023-01-27T03:24:47;83873.40;;;25.26;3.17
36524;BME280;66329;46.796;9.824;2023-01-27T03:27:15;83872.50;;;25.27;3.16
36524;BME280;66329;46.796;9.824;2023-01-27T03:29:42;83873.87;;;25.26;3.19
36524;BME280;66329;46.796;9.824;2023-01-27T03:32:09;83873.69;;;25.28;3.14
36524;BME280;66329;46.796;9.824;2023-01-27T03:34:36;83871.65;;;24.91;3.14
36524;BME280;66329;46.796;9.824;2023-01-27T03:37:03;83871.30;;;25.31;3.11
36524;BME280;66329;46.796;9.824;2023-01-27T03:39:30;83869.42;;;24.98;3.10
36524;BME280;66329;46.796;9.824;2023-01-27T03:41:57;83874.65;;;24.95;3.07
36524;BME280;66329;46.796;9.824;2023-01-27T03:44:25;83871.74;;;25.35;3.09
36524;BME280;66329;46.796;9.824;2023-01-27T03:46:52;83875.57;;;25.34;3.09
36524;BME280;66329;46.796;9.824;2023-01-27T03:49:19;83874.30;;;24.92;3.05
36524;BME280;66329;46.796;9.824;2023-01-27T03:51:47;83870.66;;;25.31;3.07
36524;BME280;66329;46.796;9.824;2023-01-27T03:54:14;83869.93;;;25.30;3.10
36524;BME280;66329;46.796;9.824;2023-01-27T03:56:41;83867.61;;;25.31;3.05
36524;BME280;66329;46.796;9.824;2023-01-27T03:59:08;83871.32;;;25.39;3.02
36524;BME280;66329;46.796;9.824;2023-01-27T04:01:35;83874.01;;;25.00;3.04
36524;BME280;66329;46.796;9.824;2023-01-27T04:04:03;83881.06;;;24.97;3.05
36524;BME280;66329;46.796;9.824;2023-01-27T04:06:33;83881.15;;;24.95;3.01
36524;BME280;66329;46.796;9.824;2023-01-27T04:09:00;83884.38;;;24.93;3.00
36524;BME280;66329;46.796;9.824;2023-01-27T04:11:29;83883.35;;;24.48;3.01
36524;BME280;66329;46.796;9.824;2023-01-27T04:13:59;83877.22;;;24.94;2.99
36524;BME280;66329;46.796;9.824;2023-01-27T04:16:29;83885.87;;;24.90;3.01
36524;BME280;66329;46.796;9.824;2023-01-27T04:18:56;83885.65;;;24.89;2.98
36524;BME280;66329;46.796;9.824;2023-01-27T04:21:25;83887.16;;;24.89;2.94
36524;BME280;66329;46.796;9.824;2023-01-27T04:23:52;83889.77;;;24.92;2.97
36524;BME280;66329;46.796;9.824;2023-01-27T04:26:20;83891.17;;;25.29;2.94
36524;BME280;66329;46.796;9.824;2023-01-27T04:28:48;83893.71;;;24.96;2.93
36524;BME280;66329;46.796;9.824;2023-01-27T04:31:17;83892.10;;;25.00;2.89
36524;BME280;66329;46.796;9.824;2023-01-27T04:33:44;83885.59;;;24.42;2.91
36524;BME280;66329;46.796;9.824;2023-01-27T04:36:11;83883.92;;;24.88;2.90
36524;BME280;66329;46.796;9.824;2023-01-27T04:38:38;83883.24;;;24.94;2.90
36524;BME280;66329;46.796;9.824;2023-01-27T04:41:05;83882.19;;;24.95;2.88
36524;BME280;66329;46.796;9.824;2023-01-27T04:43:32;83880.13;;;24.93;2.90
36524;BME280;66329;46.796;9.824;2023-01-27T04:45:59;83880.28;;;25.34;2.87
36524;BME280;66329;46.796;9.824;2023-01-27T04:48:26;83876.78;;;25.32;2.84
36524;BME280;66329;46.796;9.824;2023-01-27T04:50:54;83871.85;;;25.34;2.82
36524;BME280;66329;46.796;9.824;2023-01-27T04:53:29;83866.15;;;24.86;2.90
36524;BME280;66329;46.796;9.824;2023-01-27T04:56:01;83862.56;;;24.79;2.88
36524;BME280;66329;46.796;9.824;2023-01-27T04:58:29;83852.27;;;25.23;2.87
36524;BME280;66329;46.796;9.824;2023-01-27T05:00:56;83851.58;;;24.86;2.86
36524;BME280;66329;46.796;9.824;2023-01-27T05:03:23;83857.88;;;25.25;2.83
36524;BME280;66329;46.796;9.824;2023-01-27T05:05:50;83862.68;;;25.21;2.86
36524;BME280;66329;46.796;9.824;2023-01-27T05:08:18;83865.52;;;25.24;2.84
36524;BME280;66329;46.796;9.824;2023-01-27T05:10:46;83863.04;;;24.38;2.82
36524;BME280;66329;46.796;9.824;2023-01-27T05:13:13;83860.46;;;25.27;2.83
36524;BME280;66329;46.796;9.824;2023-01-27T05:15:40;83867.43;;;25.22;2.86
36524;BME280;66329;46.796;9.824;2023-01-27T05:18:07;83871.24;;;25.24;2.85
36524;BME280;66329;46.796;9.824;2023-01-27T05:20:36;83870.24;;;24.30;2.86
36524;BME280;66329;46.796;9.824;2023-01-27T05:23:06;83877.25;;;24.79;2.86
36524;BME280;66329;46.796;9.824;2023-01-27T05:25:34;83875.06;;;24.33;2.81
36524;BME280;66329;46.796;9.824;2023-01-27T05:28:01;83874.62;;;25.25;2.77
36524;BME280;66329;46.796;9.824;2023-01-27T05:30:28;83872.40;;;24.39;2.78
36524;BME280;66329;46.796;9.824;2023-01-27T05:32:55;83870.05;;;25.31;2.84
36524;BME280;66329;46.796;9.824;2023-01-27T05:35:22;83869.00;;;25.36;2.77
36524;BME280;66329;46.796;9.824;2023-01-27T05:37:50;83870.24;;;25.36;2.78
36524;BME280;66329;46.796;9.824;2023-01-27T05:40:17;83870.64;;;25.31;2.80
36524;BME280;66329;46.796;9.824;2023-01-27T05:42:45;83873.16;;;24.85;2.81
36524;BME280;66329;46.796;9.824;2023-01-27T05:45:12;83881.54;;;25.25;2.75
36524;BME280;66329;46.796;9.824;2023-01-27T05:47:39;83877.77;;;24.83;2.75
36524;BME280;66329;46.796;9.824;2023-01-27T05:50:09;83877.76;;;24.83;2.78
36524;BME280;66329;46.796;9.824;2023-01-27T05:52:37;83874.49;;;24.83;2.76
36524;BME280;66329;46.796;9.824;2023-01-27T05:55:05;83876.27;;;24.84;2.76
36524;BME280;66329;46.796;9.824;2023-01-27T05:57:33;83880.29;;;24.92;2.85
36524;BME280;66329;46.796;9.824;2023-01-27T06:00:00;83876.88;;;24.82;2.86
36524;BME280;66329;46.796;9.824;2023-01-27T06:02:27;83879.66;;;25.36;2.86
36524;BME280;66329;46.796;9.824;2023-01-27T06:04:56;83882.21;;;24.96;2.83
36524;BME280;66329;46.796;9.824;2023-01-27T06:07:23;83879.46;;;25.35;2.65
36524;BME280;66329;46.796;9.824;2023-01-27T06:09:50;83880.23;;;24.95;2.63
36524;BME280;66329;46.796;9.824;2023-01-27T06:12:17;83879.46;;;24.47;2.64
36524;BME280;66329;46.796;9.824;2023-01-27T06:14:45;83876.82;;;25.46;3.10
36524;BME280;66329;46.796;9.824;2023-01-27T06:17:12;83871.66;;;24.99;2.93
36524;BME280;66329;46.796;9.824;2023-01-27T06:19:39;83871.22;;;24.99;2.81
36524;BME280;66329;46.796;9.824;2023-01-27T06:22:06;83869.99;;;25.17;3.22
36524;BME280;66329;46.796;9.824;2023-01-27T06:24:33;83870.01;;;24.90;2.97
36524;BME280;66329;46.796;9.824;2023-01-27T06:27:01;83868.84;;;24.72;3.03
36524;BME280;66329;46.796;9.824;2023-01-27T06:29:28;83856.74;;;24.81;3.96
36524;BME280;66329;46.796;9.824;2023-01-27T06:31:55;83857.17;;;24.84;4.32
36524;BME280;66329;46.796;9.824;2023-01-27T06:34:22;83857.31;;;24.66;3.97
36524;BME280;66329;46.796;9.824;2023-01-27T06:36:51;83872.12;;;24.69;4.08
36524;BME280;66329;46.796;9.824;2023-01-27T06:39:19;83877.02;;;25.25;4.28
36524;BME280;66329;46.796;9.824;2023-01-27T06:41:48;83878.06;;;24.90;4.63
36524;BME280;66329;46.796;9.824;2023-01-27T06:44:16;83882.76;;;24.96;4.78
36524;BME280;66329;46.796;9.824;2023-01-27T06:46:43;83886.82;;;24.83;4.98
36524;BME280;66329;46.796;9.824;2023-01-27T06:49:10;83896.24;;;25.34;4.98
36524;BME280;66329;46.796;9.824;2023-01-27T06:51:37;83893.83;;;25.45;4.99
36524;BME280;66329;46.796;9.824;2023-01-27T06:54:04;83896.85;;;25.49;5.13
36524;BME280;66329;46.796;9.824;2023-01-27T06:56:32;83889.01;;;24.55;5.11
36524;BME280;66329;46.796;9.824;2023-01-27T06:58:59;83889.29;;;25.52;5.24
36524;BME280;66329;46.796;9.824;2023-01-27T07:01:26;83895.73;;;25.58;5.12
36524;BME280;66329;46.796;9.824;2023-01-27T07:03:53;83893.01;;;25.60;4.98
36524;BME280;66329;46.796;9.824;2023-01-27T07:06:20;83896.07;;;25.08;4.74
36524;BME280;66329;46.796;9.824;2023-01-27T07:08:47;83890.61;;;24.56;5.16
36524;BME280;66329;46.796;9.824;2023-01-27T07:11:14;83886.49;;;25.54;5.15
36524;BME280;66329;46.796;9.824;2023-01-27T07:13:41;83889.53;;;25.18;5.15
36524;BME280;66329;46.796;9.824;2023-01-27T07:16:09;83886.64;;;25.24;4.63
36524;BME280;66329;46.796;9.824;2023-01-27T07:18:36;83889.62;;;24.52;4.92
36524;BME280;66329;46.796;9.824;2023-01-27T07:21:04;83894.29;;;23.81;4.97
36524;BME280;66329;46.796;9.824;2023-01-27T07:23:31;83899.16;;;24.97;4.78
36524;BME280;66329;46.796;9.824;2023-01-27T07:26:00;83902.31;;;24.28;4.80
36524;BME280;66329;46.796;9.824;2023-01-27T07:28:28;83895.56;;;25.23;4.67
36524;BME280;66329;46.796;9.824;2023-01-27T07:31:00;83899.54;;;25.18;4.61
36524;BME280;66329;46.796;9.824;2023-01-27T07:33:28;83893.88;;;24.83;4.83
36524;BME280;66329;46.796;9.824;2023-01-27T07:35:55;83898.26;;;25.19;4.93
36524;BME280;66329;46.796;9.824;2023-01-27T07:38:22;83899.38;;;24.56;4.94
36524;BME280;66329;46.796;9.824;2023-01-27T07:40:50;83898.72;;;24.91;5.07
36524;BME280;66329;46.796;9.824;2023-01-27T07:43:17;83898.82;;;24.72;5.01
36524;BME280;66329;46.796;9.824;2023-01-27T07:45:44;83898.47;;;24.69;5.06
36524;BME280;66329;46.796;9.824;2023-01-27T07:48:11;83896.01;;;24.59;5.10
36524;BME280;66329;46.796;9.824;2023-01-27T07:50:39;83896.37;;;25.12;5.06
36524;BME280;66329;46.796;9.824;2023-01-27T07:53:06;83904.61;;;25.07;5.11
36524;BME280;66329;46.796;9.824;2023-01-27T07:55:33;83903.30;;;24.92;5.10
36524;BME280;66329;46.796;9.824;2023-01-27T07:58:01;83902.55;;;24.49;5.05
36524;BME280;66329;46.796;9.824;2023-01-27T08:00:29;83901.72;;;25.09;5.25
36524;BME280;66329;46.796;9.824;2023-01-27T08:02:58;83896.04;;;25.53;5.29
36524;BME280;66329;46.796;9.824;2023-01-27T08:05:26;83894.09;;;24.60;5.21
36524;BME280;66329;46.796;9.824;2023-01-27T08:07:54;83896.37;;;24.39;5.24
36524;BME280;66329;46.796;9.824;2023-01-27T08:10:22;83890.22;;;24.38;5.34
36524;BME280;66329;46.796;9.824;2023-01-27T08:12:49;83897.41;;;24.70;4.88
36524;BME280;66329;46.796;9.824;2023-01-27T08:15:17;83901.37;;;24.72;4.93
36524;BME280;66329;46.796;9.824;2023-01-27T08:17:44;83905.32;;;24.55;4.84
36524;BME280;66329;46.796;9.824;2023-01-27T08:20:18;83908.81;;;24.28;4.74
36524;BME280;66329;46.796;9.824;2023-01-27T08:22:46;83903.45;;;25.09;4.91
36524;BME280;66329;46.796;9.824;2023-01-27T08:25:13;83903.21;;;24.73;5.03
36524;BME280;66329;46.796;9.824;2023-01-27T08:27:40;83905.45;;;24.86;4.89
36524;BME280;66329;46.796;9.824;2023-01-27T08:30:09;83912.19;;;25.32;5.15
36524;BME280;66329;46.796;9.824;2023-01-27T08:32:36;83905.78;;;25.36;5.16
36524;BME280;66329;46.796;9.824;2023-01-27T08:35:03;83904.75;;;25.43;5.29
36524;BME280;66329;46.796;9.824;2023-01-27T08:37:30;83906.23;;;25.06;5.28
36524;BME280;66329;46.796;9.824;2023-01-27T08:39:58;83905.33;;;25.14;5.28
36524;BME280;66329;46.796;9.824;2023-01-27T08:42:26;83907.43;;;25.22;5.26
36524;BME280;66329;46.796;9.824;2023-01-27T08:44:58;83907.71;;;24.81;5.27
36524;BME280;66329;46.796;9.824;2023-01-27T08:47:26;83908.94;;;25.33;5.14
36524;BME280;66329;46.796;9.824;2023-01-27T08:49:53;83907.85;;;24.90;5.16
36524;BME280;66329;46.796;9.824;2023-01-27T08:52:20;83911.22;;;25.45;5.19
36524;BME280;66329;46.796;9.824;2023-01-27T08:54:47;83907.58;;;25.72;5.13
36524;BME280;66329;46.796;9.824;2023-01-27T08:57:15;83911.62;;;25.04;5.01
36524;BME280;66329;46.796;9.824;2023-01-27T08:59:42;83919.19;;;25.08;5.46
36524;BME280;66329;46.796;9.824;2023-01-27T09:02:11;83920.33;;;24.35;4.99
36524;BME280;66329;46.796;9.824;2023-01-27T09:04:39;83919.80;;;25.03;4.90
36524;BME280;66329;46.796;9.824;2023-01-27T09:07:06;83924.08;;;24.24;4.75
36524;BME280;66329;46.796;9.824;2023-01-27T09:10:14;83925.18;;;26.11;4.58
36524;BME280;66329;46.796;9.824;2023-01-27T09:12:42;83918.60;;;24.41;4.57
36524;BME280;66329;46.796;9.824;2023-01-27T09:15:10;83918.32;;;24.80;4.80
36524;BME280;66329;46.796;9.824;2023-01-27T09:17:41;83916.52;;;24.78;4.29
36524;BME280;66329;46.796;9.824;2023-01-27T09:20:09;83919.00;;;24.96;4.56
36524;BME280;66329;46.796;9.824;2023-01-27T09:22:38;83915.78;;;24.94;4.66
36524;BME280;66329;46.796;9.824;2023-01-27T09:25:06;83913.36;;;25.10;4.62
36524;BME280;66329;46.796;9.824;2023-01-27T09:27:33;83916.03;;;25.16;4.65
36524;BME280;66329;46.796;9.824;2023-01-27T09:30:07;83919.07;;;24.68;4.68
36524;BME280;66329;46.796;9.824;2023-01-27T09:32:35;83918.89;;;24.16;4.61
36524;BME280;66329;46.796;9.824;2023-01-27T09:35:03;83918.03;;;24.55;4.38
36524;BME280;66329;46.796;9.824;2023-01-27T09:37:32;83914.17;;;24.72;4.19
36524;BME280;66329;46.796;9.824;2023-01-27T09:40:01;83915.97;;;24.77;4.06
36524;BME280;66329;46.796;9.824;2023-01-27T09:42:41;83916.44;;;25.25;4.15
36524;BME280;66329;46.796;9.824;2023-01-27T09:45:35;83922.73;;;25.24;4.15
36524;BME280;66329;46.796;9.824;2023-01-27T09:48:22;83920.39;;;25.16;4.09
36524;BME280;66329;46.796;9.824;2023-01-27T09:50:56;83920.68;;;24.80;4.75
36524;BME280;66329;46.796;9.824;2023-01-27T09:54:12;83917.09;;;24.33;5.09
36524;BME280;66329;46.796;9.824;2023-01-27T09:56:49;83918.42;;;24.70;5.06
36524;BME280;66329;46.796;9.824;2023-01-27T09:59:27;83922.39;;;24.94;5.04
36524;BME280;66329;46.796;9.824;2023-01-27T10:02:11;83922.78;;;24.99;4.57
36524;BME280;66329;46.796;9.824;2023-01-27T10:04:57;83921.56;;;25.05;4.73
36524;BME280;66329;46.796;9.824;2023-01-27T10:08:51;83921.03;;;24.39;4.88
36524;BME280;66329;46.796;9.824;2023-01-27T10:11:32;83913.86;;;24.89;4.75
36524;BME280;66329;46.796;9.824;2023-01-27T10:14:12;83912.28;;;24.84;4.68
36524;BME280;66329;46.796;9.824;2023-01-27T10:17:02;83914.92;;;24.96;4.54
36524;BME280;66329;46.796;9.824;2023-01-27T10:19:46;83913.25;;;24.97;4.45
36524;BME280;66329;46.796;9.824;2023-01-27T10:22:21;83905.32;;;24.90;4.45
36524;BME280;66329;46.796;9.824;2023-01-27T10:25:13;83903.45;;;25.35;4.58
36524;BME280;66329;46.796;9.824;2023-01-27T10:27:47;83904.22;;;24.96;4.61
36524;BME280;66329;46.796;9.824;2023-01-27T10:30:27;83906.39;;;24.70;4.60
36524;BME280;66329;46.796;9.824;2023-01-27T10:33:05;83904.58;;;24.70;4.54
36524;BME280;66329;46.796;9.824;2023-01-27T10:35:39;83898.14;;;24.81;4.62
36524;BME280;66329;46.796;9.824;2023-01-27T10:38:18;83899.82;;;24.90;4.59
36524;BME280;66329;46.796;9.824;2023-01-27T10:40:52;83896.46;;;24.95;4.53
36524;BME280;66329;46.796;9.824;2023-01-27T10:43:30;83894.88;;;24.90;4.50
36524;BME280;66329;46.796;9.824;2023-01-27T10:46:08;83898.45;;;25.07;4.49
36524;BME280;66329;46.796;9.824;2023-01-27T10:48:42;83893.04;;;24.87;4.46
36524;BME280;66329;46.796;9.824;2023-01-27T10:51:17;83893.77;;;24.70;4.85
36524;BME280;66329;46.796;9.824;2023-01-27T10:53:51;83892.07;;;25.20;4.70
36524;BME280;66329;46.796;9.824;2023-01-27T10:56:26;83893.05;;;25.38;4.54
36524;BME280;66329;46.796;9.824;2023-01-27T10:59:02;83892.54;;;25.45;4.23
36524;BME280;66329;46.796;9.824;2023-01-27T11:01:33;83890.13;;;25.34;4.81
36524;BME280;66329;46.796;9.824;2023-01-27T11:04:04;83887.52;;;24.54;4.43
36524;BME280;66329;46.796;9.824;2023-01-27T11:06:38;83888.12;;;25.08;4.33
36524;BME280;66329;46.796;9.824;2023-01-27T11:09:14;83885.43;;;25.56;4.21
36524;BME280;66329;46.796;9.824;2023-01-27T11:11:44;83884.48;;;25.20;4.18
36524;BME280;66329;46.796;9.824;2023-01-27T11:14:26;83885.09;;;25.68;3.92
36524;BME280;66329;46.796;9.824;2023-01-27T11:17:02;83885.54;;;25.22;3.80
36524;BME280;66329;46.796;9.824;2023-01-27T11:19:38;83888.05;;;25.21;3.77
36524;BME280;66329;46.796;9.824;2023-01-27T11:22:16;83879.99;;;25.21;3.69
36524;BME280;66329;46.796;9.824;2023-01-27T11:24:47;83874.50;;;25.67;3.60
36524;BME280;66329;46.796;9.824;2023-01-27T11:27:25;83879.34;;;24.73;3.59
36524;BME280;66329;46.796;9.824;2023-01-27T11:30:00;83881.25;;;25.63;3.61
36524;BME280;66329;46.796;9.824;2023-01-27T11:32:39;83879.14;;;25.62;3.59
36524;BME280;66329;46.796;9.824;2023-01-27T11:35:10;83878.54;;;25.52;3.59
36524;BME280;66329;46.796;9.824;2023-01-27T11:37:39;83876.64;;;25.21;3.61
36524;BME280;66329;46.796;9.824;2023-01-27T11:40:15;83874.14;;;25.55;3.65
36524;BME280;66329;46.796;9.824;2023-01-27T11:42:44;83871.69;;;25.57;3.64
36524;BME280;66329;46.796;9.824;2023-01-27T11:45:14;83868.62;;;25.10;3.65
36524;BME280;66329;46.796;9.824;2023-01-27T11:47:43;83871.21;;;25.11;3.64
36524;BME280;66329;46.796;9.824;2023-01-27T11:50:16;83873.46;;;25.54;3.66
36524;BME280;66329;46.796;9.824;2023-01-27T11:52:47;83875.42;;;25.11;3.66
36524;BME280;66329;46.796;9.824;2023-01-27T11:55:18;83876.28;;;25.55;3.63
36524;BME280;66329;46.796;9.824;2023-01-27T11:57:49;83876.97;;;25.48;3.64
36524;BME280;66329;46.796;9.824;2023-01-27T12:00:22;83873.24;;;25.46;3.67
36524;BME280;66329;46.796;9.824;2023-01-27T12:02:57;83870.31;;;25.09;3.66
36524;BME280;66329;46.796;9.824;2023-01-27T12:05:30;83868.07;;;24.58;3.71
36524;BME280;66329;46.796;9.824;2023-01-27T12:07:59;83867.86;;;25.08;3.67
36524;BME280;66329;46.796;9.824;2023-01-27T12:10:30;83866.36;;;24.59;3.64
36524;BME280;66329;46.796;9.824;2023-01-27T12:13:01;83867.45;;;25.54;3.67
36524;BME280;66329;46.796;9.824;2023-01-27T12:15:35;83858.68;;;24.58;3.69
36524;BME280;66329;46.796;9.824;2023-01-27T12:18:09;83856.83;;;25.50;3.67
36524;BME280;66329;46.796;9.824;2023-01-27T12:20:39;83856.22;;;25.10;3.65
36524;BME280;66329;46.796;9.824;2023-01-27T12:23:17;83854.43;;;25.18;3.59
36524;BME280;66329;46.796;9.824;2023-01-27T12:25:51;83850.15;;;25.18;3.77
36524;BME280;66329;46.796;9.824;2023-01-27T12:28:26;83848.57;;;25.56;3.82
36524;BME280;66329;46.796;9.824;2023-01-27T12:30:58;83845.60;;;24.68;3.84
36524;BME280;66329;46.796;9.824;2023-01-27T12:33:31;83846.82;;;25.54;3.87
36524;BME280;66329;46.796;9.824;2023-01-27T12:36:02;83848.72;;;25.58;4.04
36524;BME280;66329;46.796;9.824;2023-01-27T12:38:35;83849.39;;;25.20;4.20
36524;BME280;66329;46.796;9.824;2023-01-27T12:41:06;83850.38;;;25.20;4.27
36524;BME280;66329;46.796;9.824;2023-01-27T12:43:50;83845.82;;;24.69;4.28
36524;BME280;66329;46.796;9.824;2023-01-27T12:46:22;83851.14;;;25.03;4.35
36524;BME280;66329;46.796;9.824;2023-01-27T12:48:51;83846.75;;;24.71;4.28
36524;BME280;66329;46.796;9.824;2023-01-27T12:51:20;83844.93;;;24.94;4.33
36524;BME280;66329;46.796;9.824;2023-01-27T12:53:49;83841.72;;;24.96;4.37
36524;BME280;66329;46.796;9.824;2023-01-27T12:56:19;83842.73;;;24.80;4.52
36524;BME280;66329;46.796;9.824;2023-01-27T12:58:56;83839.64;;;24.21;4.72
36524;BME280;66329;46.796;9.824;2023-01-27T13:01:27;83844.43;;;24.93;5.37
36524;BME280;66329;46.796;9.824;2023-01-27T13:03:58;83847.36;;;24.08;5.24
36524;BME280;66329;46.796;9.824;2023-01-27T13:06:33;83848.22;;;25.17;5.05
36524;BME280;66329;46.796;9.824;2023-01-27T13:09:01;83852.15;;;25.17;5.15
36524;BME280;66329;46.796;9.824;2023-01-27T13:11:32;83851.44;;;25.36;5.32
36524;BME280;66329;46.796;9.824;2023-01-27T13:14:01;83852.40;;;24.53;5.35
36524;BME280;66329;46.796;9.824;2023-01-27T13:16:29;83853.73;;;25.57;5.34
36524;BME280;66329;46.796;9.824;2023-01-27T13:18:58;83857.87;;;25.22;5.40
36524;BME280;66329;46.796;9.824;2023-01-27T13:21:31;83856.06;;;25.22;5.36
36524;BME280;66329;46.796;9.824;2023-01-27T13:24:01;83861.34;;;25.67;5.36
36524;BME280;66329;46.796;9.824;2023-01-27T13:26:31;83862.56;;;25.25;5.58